sensor_id;sensor_type;location;lat;lon;timestamp;temperature;humidity
9209;DHT22;4639;48.862;9.188;2022-08-21T00:01:03;18.40;99.90
9209;DHT22;4639;48.862;9.188;2022-08-21T00:03:31;18.50;99.90
9209;DHT22;4639;48.862;9.188;2022-08-21T00:05:57;18.50;99.90
9209;DHT22;4639;48.862;9.188;2022-08-21T00:08:22;18.50;99.90
9209;DHT22;4639;48.862;9.188;2022-08-21T00:10:49;18.50;99.90
9209;DHT22;4639;48.862;9.188;2022-08-21T00:13:17;18.50;99.90
9209;DHT22;4639;48.862;9.188;2022-08-21T00:15:45;18.40;99.90
9209;DHT22;4639;48.862;9.188;2022-08-21T00:18:11;18.50;99.90
9209;DHT22;4639;48.862;9.188;2022-08-21T00:20:38;18.40;99.90
9209;DHT22;4639;48.862;9.188;2022-08-21T00:23:04;18.60;99.90
9209;DHT22;4639;48.862;9.188;2022-08-21T00:25:30;18.60;99.90
9209;DHT22;4639;48.862;9.188;2022-08-21T00:27:56;18.60;99.90
9209;DHT22;4639;48.862;9.188;2022-08-21T00:30:25;18.40;99.90
9209;DHT22;4639;48.862;9.188;2022-08-21T00:32:52;18.30;99.90
9209;DHT22;4639;48.862;9.188;2022-08-21T00:35:22;18.30;99.90
9209;DHT22;4639;48.862;9.188;2022-08-21T00:37:48;18.20;99.90
9209;DHT22;4639;48.862;9.188;2022-08-21T00:40:18;18.20;99.90
9209;DHT22;4639;48.862;9.188;2022-08-21T00:42:44;18.20;99.90
9209;DHT22;4639;48.862;9.188;2022-08-21T00:45:11;18.20;99.90
9209;DHT22;4639;48.862;9.188;2022-08-21T00:47:36;18.10;99.90
9209;DHT22;4639;48.862;9.188;2022-08-21T00:50:05;18.10;99.90
9209;DHT22;4639;48.862;9.188;2022-08-21T00:52:32;18.10;99.90
9209;DHT22;4639;48.862;9.188;2022-08-21T00:54:59;18.00;99.90
9209;DHT22;4639;48.862;9.188;2022-08-21T00:57:40;18.00;99.90
9209;DHT22;4639;48.862;9.188;2022-08-21T01:00:10;17.90;99.90
9209;DHT22;4639;48.862;9.188;2022-08-21T01:02:36;17.90;99.90
9209;DHT22;4639;48.862;9.188;2022-08-21T01:05:03;17.90;99.90
9209;DHT22;4639;48.862;9.188;2022-08-21T01:07:28;17.90;99.90
9209;DHT22;4639;48.862;9.188;2022-08-21T01:09:54;17.90;99.90
9209;DHT22;4639;48.862;9.188;2022-08-21T01:12:20;17.90;99.90
9209;DHT22;4639;48.862;9.188;2022-08-21T01:14:45;17.80;99.90
9209;DHT22;4639;48.862;9.188;2022-08-21T01:17:12;17.70;99.90
9209;DHT22;4639;48.862;9.188;2022-08-21T01:19:39;17.70;99.90
9209;DHT22;4639;48.862;9.188;2022-08-21T01:22:05;17.70;99.90
9209;DHT22;4639;48.862;9.188;2022-08-21T01:24:31;17.70;99.90
9209;DHT22;4639;48.862;9.188;2022-08-21T01:26:58;17.70;99.90
9209;DHT22;4639;48.862;9.188;2022-08-21T01:29:51;17.70;99.90
9209;DHT22;4639;48.862;9.188;2022-08-21T01:32:20;17.60;99.90
9209;DHT22;4639;48.862;9.188;2022-08-21T01:34:48;17.60;99.90
9209;DHT22;4639;48.862;9.188;2022-08-21T01:37:14;17.60;99.90
9209;DHT22;4639;48.862;9.188;2022-08-21T01:39:41;17.50;99.90
9209;DHT22;4639;48.862;9.188;2022-08-21T01:42:07;17.40;99.90
9209;DHT22;4639;48.862;9.188;2022-08-21T01:44:33;17.50;99.90
9209;DHT22;4639;48.862;9.188;2022-08-21T01:47:01;17.50;99.90
9209;DHT22;4639;48.862;9.188;2022-08-21T01:49:27;17.60;99.90
9209;DHT22;4639;48.862;9.188;2022-08-21T01:51:53;17.50;99.90
9209;DHT22;4639;48.862;9.188;2022-08-21T01:54:19;17.50;99.90
9209;DHT22;4639;48.862;9.188;2022-08-21T01:56:48;17.50;99.90
9209;DHT22;4639;48.862;9.188;2022-08-21T01:59:15;17.50;99.90
9209;DHT22;4639;48.862;9.188;2022-08-21T02:01:41;17.40;99.90
9209;DHT22;4639;48.862;9.188;2022-08-21T02:04:09;17.30;99.90
9209;DHT22;4639;48.862;9.188;2022-08-21T02:06:35;17.30;99.90
9209;DHT22;4639;48.862;9.188;2022-08-21T02:09:02;17.20;99.90
9209;DHT22;4639;48.862;9.188;2022-08-21T02:11:28;17.20;99.90
9209;DHT22;4639;48.862;9.188;2022-08-21T02:13:54;17.10;99.90
9209;DHT22;4639;48.862;9.188;2022-08-21T02:16:20;17.20;99.90
9209;DHT22;4639;48.862;9.188;2022-08-21T02:18:46;17.00;99.90
9209;DHT22;4639;48.862;9.188;2022-08-21T02:21:12;16.90;99.90
9209;DHT22;4639;48.862;9.188;2022-08-21T02:23:37;16.90;99.90
9209;DHT22;4639;48.862;9.188;2022-08-21T02:26:06;17.00;99.90
9209;DHT22;4639;48.862;9.188;2022-08-21T02:28:33;17.00;99.90
9209;DHT22;4639;48.862;9.188;2022-08-21T02:30:58;17.00;99.90
9209;DHT22;4639;48.862;9.188;2022-08-21T02:33:25;17.00;99.90
9209;DHT22;4639;48.862;9.188;2022-08-21T02:35:52;17.00;99.90
9209;DHT22;4639;48.862;9.188;2022-08-21T02:38:21;16.90;99.90
9209;DHT22;4639;48.862;9.188;2022-08-21T02:40:49;16.90;99.90
9209;DHT22;4639;48.862;9.188;2022-08-21T02:43:16;16.90;99.90
9209;DHT22;4639;48.862;9.188;2022-08-21T02:45:42;16.90;99.90
9209;DHT22;4639;48.862;9.188;2022-08-21T02:48:10;16.80;99.90
9209;DHT22;4639;48.862;9.188;2022-08-21T02:50:40;16.80;99.90
9209;DHT22;4639;48.862;9.188;2022-08-21T02:53:08;16.80;99.90
9209;DHT22;4639;48.862;9.188;2022-08-21T02:55:35;17.10;99.90
9209;DHT22;4639;48.862;9.188;2022-08-21T02:58:02;16.80;99.90
9209;DHT22;4639;48.862;9.188;2022-08-21T03:00:30;16.80;99.90
9209;DHT22;4639;48.862;9.188;2022-08-21T03:02:56;16.70;99.90
9209;DHT22;4639;48.862;9.188;2022-08-21T03:05:23;16.70;99.90
9209;DHT22;4639;48.862;9.188;2022-08-21T03:07:49;16.90;99.90
9209;DHT22;4639;48.862;9.188;2022-08-21T03:10:15;16.70;99.90
9209;DHT22;4639;48.862;9.188;2022-08-21T03:12:41;16.70;99.90
9209;DHT22;4639;48.862;9.188;2022-08-21T03:15:10;16.70;99.90
9209;DHT22;4639;48.862;9.188;2022-08-21T03:17:36;16.70;99.90
9209;DHT22;4639;48.862;9.188;2022-08-21T03:20:03;16.70;99.90
9209;DHT22;4639;48.862;9.188;2022-08-21T03:22:29;16.70;99.90
9209;DHT22;4639;48.862;9.188;2022-08-21T03:24:55;16.60;99.90
9209;DHT22;4639;48.862;9.188;2022-08-21T03:27:22;16.70;99.90
9209;DHT22;4639;48.862;9.188;2022-08-21T03:29:49;16.70;99.90
9209;DHT22;4639;48.862;9.188;2022-08-21T03:32:15;16.70;99.90
9209;DHT22;4639;48.862;9.188;2022-08-21T03:34:40;16.60;99.90
9209;DHT22;4639;48.862;9.188;2022-08-21T03:37:07;16.60;99.90
9209;DHT22;4639;48.862;9.188;2022-08-21T03:39:33;16.50;99.90
9209;DHT22;4639;48.862;9.188;2022-08-21T03:41:59;16.50;99.90
9209;DHT22;4639;48.862;9.188;2022-08-21T03:44:26;16.50;99.90
9209;DHT22;4639;48.862;9.188;2022-08-21T03:46:53;16.40;99.90
9209;DHT22;4639;48.862;9.188;2022-08-21T03:49:19;16.40;99.90
9209;DHT22;4639;48.862;9.188;2022-08-21T03:51:45;16.40;99.90
9209;DHT22;4639;48.862;9.188;2022-08-21T03:54:10;16.30;99.90
9209;DHT22;4639;48.862;9.188;2022-08-21T03:56:36;16.30;99.90
9209;DHT22;4639;48.862;9.188;2022-08-21T03:59:01;16.40;99.90
9209;DHT22;4639;48.862;9.188;2022-08-21T04:01:28;16.30;99.90
9209;DHT22;4639;48.862;9.188;2022-08-21T04:03:54;16.30;99.90
9209;DHT22;4639;48.862;9.188;2022-08-21T04:06:19;16.20;99.90
9209;DHT22;4639;48.862;9.188;2022-08-21T04:08:45;16.20;99.90
9209;DHT22;4639;48.862;9.188;2022-08-21T04:11:11;16.20;99.90
9209;DHT22;4639;48.862;9.188;2022-08-21T04:13:37;16.20;99.90
9209;DHT22;4639;48.862;9.188;2022-08-21T04:16:04;16.10;99.90
9209;DHT22;4639;48.862;9.188;2022-08-21T04:18:29;16.10;99.90
9209;DHT22;4639;48.862;9.188;2022-08-21T04:20:57;16.10;99.90
9209;DHT22;4639;48.862;9.188;2022-08-21T04:23:24;16.10;99.90
9209;DHT22;4639;48.862;9.188;2022-08-21T04:25:51;16.10;99.90
9209;DHT22;4639;48.862;9.188;2022-08-21T04:28:17;16.10;99.90
9209;DHT22;4639;48.862;9.188;2022-08-21T04:30:43;16.00;99.90
9209;DHT22;4639;48.862;9.188;2022-08-21T04:33:08;16.00;99.90
9209;DHT22;4639;48.862;9.188;2022-08-21T04:35:34;15.90;99.90
9209;DHT22;4639;48.862;9.188;2022-08-21T04:38:00;15.80;99.90
9209;DHT22;4639;48.862;9.188;2022-08-21T04:40:27;15.90;99.90
9209;DHT22;4639;48.862;9.188;2022-08-21T04:42:56;16.00;99.90
9209;DHT22;4639;48.862;9.188;2022-08-21T04:45:30;16.10;99.90
9209;DHT22;4639;48.862;9.188;2022-08-21T04:47:58;16.10;99.90
9209;DHT22;4639;48.862;9.188;2022-08-21T04:50:45;16.10;99.90
9209;DHT22;4639;48.862;9.188;2022-08-21T04:53:18;16.20;99.90
9209;DHT22;4639;48.862;9.188;2022-08-21T04:55:45;16.20;99.90
9209;DHT22;4639;48.862;9.188;2022-08-21T04:58:14;16.20;99.90
9209;DHT22;4639;48.862;9.188;2022-08-21T05:00:40;16.10;99.90
9209;DHT22;4639;48.862;9.188;2022-08-21T05:03:08;16.20;99.90
9209;DHT22;4639;48.862;9.188;2022-08-21T05:05:35;16.20;99.90
9209;DHT22;4639;48.862;9.188;2022-08-21T05:08:02;16.20;99.90
9209;DHT22;4639;48.862;9.188;2022-08-21T05:10:29;16.20;99.90
9209;DHT22;4639;48.862;9.188;2022-08-21T05:12:56;16.30;99.90
9209;DHT22;4639;48.862;9.188;2022-08-21T05:15:22;16.20;99.90
9209;DHT22;4639;48.862;9.188;2022-08-21T05:17:48;16.20;99.90
9209;DHT22;4639;48.862;9.188;2022-08-21T05:20:16;16.30;99.90
9209;DHT22;4639;48.862;9.188;2022-08-21T05:22:42;16.30;99.90
9209;DHT22;4639;48.862;9.188;2022-08-21T05:25:09;16.30;99.90
9209;DHT22;4639;48.862;9.188;2022-08-21T05:27:35;16.30;99.90
9209;DHT22;4639;48.862;9.188;2022-08-21T05:30:01;16.30;99.90
9209;DHT22;4639;48.862;9.188;2022-08-21T05:32:27;16.20;99.90
9209;DHT22;4639;48.862;9.188;2022-08-21T05:34:53;16.20;99.90
9209;DHT22;4639;48.862;9.188;2022-08-21T05:37:20;16.30;99.90
9209;DHT22;4639;48.862;9.188;2022-08-21T05:39:46;16.30;99.90
9209;DHT22;4639;48.862;9.188;2022-08-21T05:42:12;16.30;99.90
9209;DHT22;4639;48.862;9.188;2022-08-21T05:44:37;16.30;99.90
9209;DHT22;4639;48.862;9.188;2022-08-21T05:47:05;16.20;99.90
9209;DHT22;4639;48.862;9.188;2022-08-21T05:49:31;16.30;99.90
9209;DHT22;4639;48.862;9.188;2022-08-21T05:51:56;16.20;99.90
9209;DHT22;4639;48.862;9.188;2022-08-21T05:54:22;16.30;99.90
9209;DHT22;4639;48.862;9.188;2022-08-21T05:56:47;16.40;99.90
9209;DHT22;4639;48.862;9.188;2022-08-21T05:59:13;16.40;99.90
9209;DHT22;4639;48.862;9.188;2022-08-21T06:01:39;16.50;99.90
9209;DHT22;4639;48.862;9.188;2022-08-21T06:04:05;16.60;99.90
9209;DHT22;4639;48.862;9.188;2022-08-21T06:06:31;16.50;99.90
9209;DHT22;4639;48.862;9.188;2022-08-21T06:08:57;16.50;99.90
9209;DHT22;4639;48.862;9.188;2022-08-21T06:11:23;16.60;99.90
9209;DHT22;4639;48.862;9.188;2022-08-21T06:13:49;16.70;99.90
9209;DHT22;4639;48.862;9.188;2022-08-21T06:16:16;16.70;99.90
9209;DHT22;4639;48.862;9.188;2022-08-21T06:18:42;16.70;99.90
9209;DHT22;4639;48.862;9.188;2022-08-21T06:21:08;16.80;99.90
9209;DHT22;4639;48.862;9.188;2022-08-21T06:23:34;16.80;99.90
9209;DHT22;4639;48.862;9.188;2022-08-21T06:26:05;16.80;99.90
9209;DHT22;4639;48.862;9.188;2022-08-21T06:28:31;17.20;99.90
9209;DHT22;4639;48.862;9.188;2022-08-21T06:30:57;17.10;99.90
9209;DHT22;4639;48.862;9.188;2022-08-21T06:33:23;17.20;99.90
9209;DHT22;4639;48.862;9.188;2022-08-21T06:35:49;17.40;99.90
9209;DHT22;4639;48.862;9.188;2022-08-21T06:38:15;17.30;99.90
9209;DHT22;4639;48.862;9.188;2022-08-21T06:40:41;17.40;99.90
9209;DHT22;4639;48.862;9.188;2022-08-21T06:43:09;17.40;99.90
9209;DHT22;4639;48.862;9.188;2022-08-21T06:45:35;17.50;99.90
9209;DHT22;4639;48.862;9.188;2022-08-21T06:48:01;17.50;99.90
9209;DHT22;4639;48.862;9.188;2022-08-21T06:50:28;17.70;99.90
9209;DHT22;4639;48.862;9.188;2022-08-21T06:53:01;17.70;99.90
9209;DHT22;4639;48.862;9.188;2022-08-21T06:55:27;17.80;99.90
9209;DHT22;4639;48.862;9.188;2022-08-21T06:57:53;17.90;99.90
9209;DHT22;4639;48.862;9.188;2022-08-21T07:00:19;18.00;99.90
9209;DHT22;4639;48.862;9.188;2022-08-21T07:02:44;18.10;99.90
9209;DHT22;4639;48.862;9.188;2022-08-21T07:05:10;18.10;99.90
9209;DHT22;4639;48.862;9.188;2022-08-21T07:07:36;18.20;99.90
9209;DHT22;4639;48.862;9.188;2022-08-21T07:10:01;18.30;99.90
9209;DHT22;4639;48.862;9.188;2022-08-21T07:12:27;18.50;99.90
9209;DHT22;4639;48.862;9.188;2022-08-21T07:14:52;18.50;99.90
9209;DHT22;4639;48.862;9.188;2022-08-21T07:17:18;18.60;99.90
9209;DHT22;4639;48.862;9.188;2022-08-21T07:19:44;18.70;99.90
9209;DHT22;4639;48.862;9.188;2022-08-21T07:22:09;18.80;99.90
9209;DHT22;4639;48.862;9.188;2022-08-21T07:24:35;18.90;99.90
9209;DHT22;4639;48.862;9.188;2022-08-21T07:27:01;19.00;99.90
9209;DHT22;4639;48.862;9.188;2022-08-21T07:29:26;19.20;99.90
9209;DHT22;4639;48.862;9.188;2022-08-21T07:31:52;19.40;99.90
9209;DHT22;4639;48.862;9.188;2022-08-21T07:34:17;19.50;99.90
9209;DHT22;4639;48.862;9.188;2022-08-21T07:36:43;19.60;99.90
9209;DHT22;4639;48.862;9.188;2022-08-21T07:39:08;19.70;99.90
9209;DHT22;4639;48.862;9.188;2022-08-21T07:41:34;19.70;99.90
9209;DHT22;4639;48.862;9.188;2022-08-21T07:44:00;19.80;99.90
9209;DHT22;4639;48.862;9.188;2022-08-21T07:46:27;20.00;99.90
9209;DHT22;4639;48.862;9.188;2022-08-21T07:48:53;20.10;99.90
9209;DHT22;4639;48.862;9.188;2022-08-21T07:51:22;20.30;99.90
9209;DHT22;4639;48.862;9.188;2022-08-21T07:53:52;20.50;99.90
9209;DHT22;4639;48.862;9.188;2022-08-21T07:56:18;20.70;99.90
9209;DHT22;4639;48.862;9.188;2022-08-21T07:58:45;20.80;99.90
9209;DHT22;4639;48.862;9.188;2022-08-21T08:01:10;20.70;99.90
9209;DHT22;4639;48.862;9.188;2022-08-21T08:03:36;20.80;99.90
9209;DHT22;4639;48.862;9.188;2022-08-21T08:06:02;20.90;99.90
9209;DHT22;4639;48.862;9.188;2022-08-21T08:08:30;20.90;99.90
9209;DHT22;4639;48.862;9.188;2022-08-21T08:10:56;21.00;99.90
9209;DHT22;4639;48.862;9.188;2022-08-21T08:13:23;21.10;99.90
9209;DHT22;4639;48.862;9.188;2022-08-21T08:15:49;21.20;99.90
9209;DHT22;4639;48.862;9.188;2022-08-21T08:18:14;21.30;99.90
9209;DHT22;4639;48.862;9.188;2022-08-21T08:20:40;21.50;99.90
9209;DHT22;4639;48.862;9.188;2022-08-21T08:23:07;21.70;99.90
9209;DHT22;4639;48.862;9.188;2022-08-21T08:25:34;21.80;99.90
9209;DHT22;4639;48.862;9.188;2022-08-21T08:28:00;21.90;99.90
9209;DHT22;4639;48.862;9.188;2022-08-21T08:30:25;22.10;99.90
9209;DHT22;4639;48.862;9.188;2022-08-21T08:32:51;22.30;99.90
9209;DHT22;4639;48.862;9.188;2022-08-21T08:35:17;22.30;99.90
9209;DHT22;4639;48.862;9.188;2022-08-21T08:37:43;22.50;99.90
9209;DHT22;4639;48.862;9.188;2022-08-21T08:40:37;22.50;99.90
9209;DHT22;4639;48.862;9.188;2022-08-21T08:43:05;22.70;99.90
9209;DHT22;4639;48.862;9.188;2022-08-21T08:45:36;22.70;99.90
9209;DHT22;4639;48.862;9.188;2022-08-21T08:48:05;22.80;99.90
9209;DHT22;4639;48.862;9.188;2022-08-21T08:50:40;22.90;99.90
9209;DHT22;4639;48.862;9.188;2022-08-21T08:53:12;23.10;99.90
9209;DHT22;4639;48.862;9.188;2022-08-21T08:55:41;23.30;99.90
9209;DHT22;4639;48.862;9.188;2022-08-21T08:58:33;23.30;99.90
9209;DHT22;4639;48.862;9.188;2022-08-21T09:00:58;23.40;99.90
9209;DHT22;4639;48.862;9.188;2022-08-21T09:03:27;23.40;99.90
9209;DHT22;4639;48.862;9.188;2022-08-21T09:25:42;24.40;99.90
9209;DHT22;4639;48.862;9.188;2022-08-21T09:28:11;24.60;99.90
9209;DHT22;4639;48.862;9.188;2022-08-21T09:30:40;24.90;99.90
9209;DHT22;4639;48.862;9.188;2022-08-21T09:33:06;25.20;99.90
9209;DHT22;4639;48.862;9.188;2022-08-21T09:35:32;25.70;99.90
9209;DHT22;4639;48.862;9.188;2022-08-21T09:38:04;26.10;99.90
9209;DHT22;4639;48.862;9.188;2022-08-21T09:45:41;26.90;99.90
9209;DHT22;4639;48.862;9.188;2022-08-21T09:48:10;27.10;99.90
9209;DHT22;4639;48.862;9.188;2022-08-21T09:50:36;27.40;99.90
9209;DHT22;4639;48.862;9.188;2022-08-21T09:53:02;27.70;99.90
9209;DHT22;4639;48.862;9.188;2022-08-21T09:55:33;27.80;99.90
9209;DHT22;4639;48.862;9.188;2022-08-21T09:58:18;27.80;99.90
9209;DHT22;4639;48.862;9.188;2022-08-21T10:00:45;28.10;99.90
9209;DHT22;4639;48.862;9.188;2022-08-21T10:03:15;28.10;99.90
9209;DHT22;4639;48.862;9.188;2022-08-21T10:05:55;27.80;99.90
9209;DHT22;4639;48.862;9.188;2022-08-21T10:08:23;27.70;99.90
9209;DHT22;4639;48.862;9.188;2022-08-21T10:11:01;28.00;99.90
9209;DHT22;4639;48.862;9.188;2022-08-21T10:16:35;28.40;99.90
9209;DHT22;4639;48.862;9.188;2022-08-21T10:27:27;29.20;99.90
9209;DHT22;4639;48.862;9.188;2022-08-21T10:35:29;29.70;99.90
9209;DHT22;4639;48.862;9.188;2022-08-21T10:47:22;30.10;99.90
9209;DHT22;4639;48.862;9.188;2022-08-21T10:55:33;30.90;99.80
9209;DHT22;4639;48.862;9.188;2022-08-21T11:00:45;31.00;99.80
9209;DHT22;4639;48.862;9.188;2022-08-21T11:03:17;31.30;99.90
9209;DHT22;4639;48.862;9.188;2022-08-21T11:05:52;31.40;99.60
9209;DHT22;4639;48.862;9.188;2022-08-21T11:10:53;31.70;99.90
9209;DHT22;4639;48.862;9.188;2022-08-21T11:13:35;31.70;98.50
9209;DHT22;4639;48.862;9.188;2022-08-21T11:22:07;30.00;98.70
9209;DHT22;4639;48.862;9.188;2022-08-21T11:25:14;30.10;99.80
9209;DHT22;4639;48.862;9.188;2022-08-21T11:27:58;30.50;98.60
9209;DHT22;4639;48.862;9.188;2022-08-21T11:36:08;30.50;98.50
9209;DHT22;4639;48.862;9.188;2022-08-21T11:38:41;30.60;98.80
9209;DHT22;4639;48.862;9.188;2022-08-21T11:47:25;30.00;97.70
9209;DHT22;4639;48.862;9.188;2022-08-21T11:50:06;30.30;98.80
9209;DHT22;4639;48.862;9.188;2022-08-21T11:52:45;30.30;97.90
9209;DHT22;4639;48.862;9.188;2022-08-21T11:58:11;30.60;98.20
9209;DHT22;4639;48.862;9.188;2022-08-21T12:00:49;30.90;98.10
9209;DHT22;4639;48.862;9.188;2022-08-21T12:03:28;31.30;97.90
9209;DHT22;4639;48.862;9.188;2022-08-21T12:06:02;31.60;97.10
9209;DHT22;4639;48.862;9.188;2022-08-21T12:08:42;31.50;96.90
9209;DHT22;4639;48.862;9.188;2022-08-21T12:16:33;31.50;96.20
9209;DHT22;4639;48.862;9.188;2022-08-21T12:19:10;31.50;95.40
9209;DHT22;4639;48.862;9.188;2022-08-21T12:21:57;31.80;96.20
9209;DHT22;4639;48.862;9.188;2022-08-21T12:27:41;32.20;95.90
9209;DHT22;4639;48.862;9.188;2022-08-21T12:29:54;32.30;95.10
9209;DHT22;4639;48.862;9.188;2022-08-21T12:32:41;32.50;95.10
9209;DHT22;4639;48.862;9.188;2022-08-21T12:35:17;32.70;94.90
9209;DHT22;4639;48.862;9.188;2022-08-21T12:37:52;32.30;93.50
9209;DHT22;4639;48.862;9.188;2022-08-21T12:42:51;31.30;95.00
9209;DHT22;4639;48.862;9.188;2022-08-21T12:45:22;31.20;95.20
9209;DHT22;4639;48.862;9.188;2022-08-21T12:50:36;31.50;95.80
9209;DHT22;4639;48.862;9.188;2022-08-21T12:53:12;31.90;96.30
9209;DHT22;4639;48.862;9.188;2022-08-21T12:55:42;32.40;94.60
9209;DHT22;4639;48.862;9.188;2022-08-21T12:58:21;32.80;94.00
9209;DHT22;4639;48.862;9.188;2022-08-21T13:00:50;32.90;92.70
9209;DHT22;4639;48.862;9.188;2022-08-21T13:03:17;32.80;93.10
9209;DHT22;4639;48.862;9.188;2022-08-21T13:05:43;32.80;93.20
9209;DHT22;4639;48.862;9.188;2022-08-21T13:08:11;32.90;94.00
9209;DHT22;4639;48.862;9.188;2022-08-21T13:10:39;32.90;92.60
9209;DHT22;4639;48.862;9.188;2022-08-21T13:13:19;32.70;93.30
9209;DHT22;4639;48.862;9.188;2022-08-21T13:15:45;32.70;93.20
9209;DHT22;4639;48.862;9.188;2022-08-21T13:18:24;32.90;93.40
9209;DHT22;4639;48.862;9.188;2022-08-21T13:20:50;32.90;92.30
9209;DHT22;4639;48.862;9.188;2022-08-21T13:23:27;32.80;92.70
9209;DHT22;4639;48.862;9.188;2022-08-21T13:25:53;33.00;92.20
9209;DHT22;4639;48.862;9.188;2022-08-21T13:28:18;32.40;92.80
9209;DHT22;4639;48.862;9.188;2022-08-21T13:30:52;32.40;93.80
9209;DHT22;4639;48.862;9.188;2022-08-21T13:33:22;32.80;93.40
9209;DHT22;4639;48.862;9.188;2022-08-21T13:36:19;33.00;91.50
9209;DHT22;4639;48.862;9.188;2022-08-21T13:38:45;33.20;93.00
9209;DHT22;4639;48.862;9.188;2022-08-21T13:41:26;33.20;92.10
9209;DHT22;4639;48.862;9.188;2022-08-21T13:43:59;33.30;91.90
9209;DHT22;4639;48.862;9.188;2022-08-21T13:46:34;33.60;91.70
9209;DHT22;4639;48.862;9.188;2022-08-21T13:49:02;33.80;90.90
9209;DHT22;4639;48.862;9.188;2022-08-21T13:51:30;33.90;90.40
9209;DHT22;4639;48.862;9.188;2022-08-21T13:53:58;33.50;89.60
9209;DHT22;4639;48.862;9.188;2022-08-21T13:56:44;32.60;91.00
9209;DHT22;4639;48.862;9.188;2022-08-21T13:59:11;31.60;91.50
9209;DHT22;4639;48.862;9.188;2022-08-21T14:01:39;30.80;91.90
9209;DHT22;4639;48.862;9.188;2022-08-21T14:04:20;30.40;92.30
9209;DHT22;4639;48.862;9.188;2022-08-21T14:06:48;30.40;92.90
9209;DHT22;4639;48.862;9.188;2022-08-21T14:09:32;30.40;92.00
9209;DHT22;4639;48.862;9.188;2022-08-21T14:12:02;30.40;92.10
9209;DHT22;4639;48.862;9.188;2022-08-21T14:14:34;30.70;92.70
9209;DHT22;4639;48.862;9.188;2022-08-21T14:17:10;30.90;91.80
9209;DHT22;4639;48.862;9.188;2022-08-21T14:19:43;31.30;92.10
9209;DHT22;4639;48.862;9.188;2022-08-21T14:24:59;31.90;92.20
9209;DHT22;4639;48.862;9.188;2022-08-21T14:27:26;32.30;92.30
9209;DHT22;4639;48.862;9.188;2022-08-21T14:29:58;32.70;91.40
9209;DHT22;4639;48.862;9.188;2022-08-21T14:32:28;33.00;91.40
9209;DHT22;4639;48.862;9.188;2022-08-21T14:34:56;33.40;90.50
9209;DHT22;4639;48.862;9.188;2022-08-21T14:37:22;33.60;90.80
9209;DHT22;4639;48.862;9.188;2022-08-21T14:39:48;33.90;90.10
9209;DHT22;4639;48.862;9.188;2022-08-21T14:42:14;34.30;90.50
9209;DHT22;4639;48.862;9.188;2022-08-21T14:44:39;34.50;88.50
9209;DHT22;4639;48.862;9.188;2022-08-21T14:47:05;34.30;89.00
9209;DHT22;4639;48.862;9.188;2022-08-21T14:49:31;34.30;88.00
9209;DHT22;4639;48.862;9.188;2022-08-21T14:51:57;34.30;89.70
9209;DHT22;4639;48.862;9.188;2022-08-21T14:54:25;34.10;88.40
9209;DHT22;4639;48.862;9.188;2022-08-21T14:56:50;33.70;88.80
9209;DHT22;4639;48.862;9.188;2022-08-21T14:59:17;33.60;89.20
9209;DHT22;4639;48.862;9.188;2022-08-21T15:01:43;33.70;89.20
9209;DHT22;4639;48.862;9.188;2022-08-21T15:04:09;33.90;88.10
9209;DHT22;4639;48.862;9.188;2022-08-21T15:06:34;34.00;86.40
9209;DHT22;4639;48.862;9.188;2022-08-21T15:09:00;34.10;88.30
9209;DHT22;4639;48.862;9.188;2022-08-21T15:11:28;34.10;86.20
9209;DHT22;4639;48.862;9.188;2022-08-21T15:13:57;34.20;88.80
9209;DHT22;4639;48.862;9.188;2022-08-21T15:16:23;34.30;87.10
9209;DHT22;4639;48.862;9.188;2022-08-21T15:18:49;34.40;87.50
9209;DHT22;4639;48.862;9.188;2022-08-21T15:21:14;34.30;87.70
9209;DHT22;4639;48.862;9.188;2022-08-21T15:23:40;34.30;86.50
9209;DHT22;4639;48.862;9.188;2022-08-21T15:26:06;34.00;85.40
9209;DHT22;4639;48.862;9.188;2022-08-21T15:28:33;34.00;85.30
9209;DHT22;4639;48.862;9.188;2022-08-21T15:31:00;34.20;87.10
9209;DHT22;4639;48.862;9.188;2022-08-21T15:33:26;34.40;86.80
9209;DHT22;4639;48.862;9.188;2022-08-21T15:35:52;34.40;86.50
9209;DHT22;4639;48.862;9.188;2022-08-21T15:38:17;34.20;87.00
9209;DHT22;4639;48.862;9.188;2022-08-21T15:40:44;34.40;86.10
9209;DHT22;4639;48.862;9.188;2022-08-21T15:43:47;34.40;87.20
9209;DHT22;4639;48.862;9.188;2022-08-21T15:46:05;34.40;85.90
9209;DHT22;4639;48.862;9.188;2022-08-21T15:48:31;34.40;83.80
9209;DHT22;4639;48.862;9.188;2022-08-21T15:50:57;34.60;84.70
9209;DHT22;4639;48.862;9.188;2022-08-21T15:53:23;34.50;83.80
9209;DHT22;4639;48.862;9.188;2022-08-21T15:55:48;34.20;84.90
9209;DHT22;4639;48.862;9.188;2022-08-21T15:58:16;33.90;87.40
9209;DHT22;4639;48.862;9.188;2022-08-21T16:00:42;33.80;86.90
9209;DHT22;4639;48.862;9.188;2022-08-21T16:03:11;33.80;84.90
9209;DHT22;4639;48.862;9.188;2022-08-21T16:05:39;33.50;84.40
9209;DHT22;4639;48.862;9.188;2022-08-21T16:08:05;33.20;85.90
9209;DHT22;4639;48.862;9.188;2022-08-21T16:10:31;32.80;86.60
9209;DHT22;4639;48.862;9.188;2022-08-21T16:13:03;32.50;87.30
9209;DHT22;4639;48.862;9.188;2022-08-21T16:15:29;32.30;88.80
9209;DHT22;4639;48.862;9.188;2022-08-21T16:17:55;32.20;89.10
9209;DHT22;4639;48.862;9.188;2022-08-21T16:20:24;32.20;87.00
9209;DHT22;4639;48.862;9.188;2022-08-21T16:22:52;32.10;87.80
9209;DHT22;4639;48.862;9.188;2022-08-21T16:25:18;32.30;88.40
9209;DHT22;4639;48.862;9.188;2022-08-21T16:27:48;32.20;87.90
9209;DHT22;4639;48.862;9.188;2022-08-21T16:30:17;32.00;89.40
9209;DHT22;4639;48.862;9.188;2022-08-21T16:32:43;31.70;89.00
9209;DHT22;4639;48.862;9.188;2022-08-21T16:35:12;31.60;91.00
9209;DHT22;4639;48.862;9.188;2022-08-21T16:37:40;31.40;90.50
9209;DHT22;4639;48.862;9.188;2022-08-21T16:40:07;31.30;90.00
9209;DHT22;4639;48.862;9.188;2022-08-21T16:42:35;31.30;90.10
9209;DHT22;4639;48.862;9.188;2022-08-21T16:45:04;31.40;88.70
9209;DHT22;4639;48.862;9.188;2022-08-21T16:47:30;31.70;89.70
9209;DHT22;4639;48.862;9.188;2022-08-21T16:49:56;31.90;88.60
9209;DHT22;4639;48.862;9.188;2022-08-21T16:52:22;32.00;89.10
9209;DHT22;4639;48.862;9.188;2022-08-21T16:54:48;32.20;89.40
9209;DHT22;4639;48.862;9.188;2022-08-21T16:57:14;32.40;89.40
9209;DHT22;4639;48.862;9.188;2022-08-21T16:59:39;32.50;87.60
9209;DHT22;4639;48.862;9.188;2022-08-21T17:02:25;32.70;89.00
9209;DHT22;4639;48.862;9.188;2022-08-21T17:04:52;32.80;88.60
9209;DHT22;4639;48.862;9.188;2022-08-21T17:07:18;32.90;88.40
9209;DHT22;4639;48.862;9.188;2022-08-21T17:09:43;32.70;88.10
9209;DHT22;4639;48.862;9.188;2022-08-21T17:12:09;32.70;90.00
9209;DHT22;4639;48.862;9.188;2022-08-21T17:14:36;32.70;89.30
9209;DHT22;4639;48.862;9.188;2022-08-21T17:17:03;32.80;90.10
9209;DHT22;4639;48.862;9.188;2022-08-21T17:19:31;32.90;89.40
9209;DHT22;4639;48.862;9.188;2022-08-21T17:21:58;32.90;88.90
9209;DHT22;4639;48.862;9.188;2022-08-21T17:24:24;32.90;88.40
9209;DHT22;4639;48.862;9.188;2022-08-21T17:26:52;33.00;89.90
9209;DHT22;4639;48.862;9.188;2022-08-21T17:29:21;32.90;88.40
9209;DHT22;4639;48.862;9.188;2022-08-21T17:31:48;32.70;87.90
9209;DHT22;4639;48.862;9.188;2022-08-21T17:34:14;32.70;89.00
9209;DHT22;4639;48.862;9.188;2022-08-21T17:36:40;32.50;90.70
9209;DHT22;4639;48.862;9.188;2022-08-21T17:39:06;32.40;90.80
9209;DHT22;4639;48.862;9.188;2022-08-21T17:41:32;32.20;89.70
9209;DHT22;4639;48.862;9.188;2022-08-21T17:44:03;32.00;90.80
9209;DHT22;4639;48.862;9.188;2022-08-21T17:46:31;31.80;90.50
9209;DHT22;4639;48.862;9.188;2022-08-21T17:48:57;31.40;91.30